METAR Rapporter från flygplatser

 

ESTA - Ängelholm, Sweden
Distance from station: SSV 17km
Uppdaterad: 2021-06-19 14:50
Klart
Klart
 Vind från VNV
Vind: VNV 13 km/h
Temperatur: 26°C
Daggpunkt: 18°C
Luftfuktighet: 61%
Barometer: 1011 hPa
Summering: Klart
Visibility: greater than 10 km
2021/06/19 12:50 ESTA 191250Z 29007KT CAVOK 26/18 Q1011
ESMT - Halmstad, Sweden
Distance from station: N 26km
Uppdaterad: 2021-06-19 14:50
Enstaka moln
Enstaka moln
 Vind från VSV
Vind: VSV 13 km/h
Temperatur: 25°C
Daggpunkt: 17°C
Luftfuktighet: 61%
Barometer: 1011 hPa
Clouds: Enstaka moln
Visibility: 10 km
Cloud details: Enstaka moln 1280 m
2021/06/19 12:50 ESMT 191250Z AUTO 25007KT 9999 FEW042/// 25/17 Q1011
 
ESTL - Ljungbyhed, Sweden
Distance from station: SSO 45km
Uppdaterad: 2021-06-19 14:50
Klart
Klart
 Vind från S
Vind: S 20 km/h
Temperatur: 31°C
Heat Index: 32°C
Daggpunkt: 17°C
Luftfuktighet: 43%
Barometer: 1011 hPa
Clouds: Klart
Visibility: 10 km
2021/06/19 12:50 ESTL 191250Z AUTO 19011KT 150V220 9999 NCD 31/17 Q1011
EKCH - Copenhagen/Kastrup, Denmark
Distance from station: S 92km
Uppdaterad: 2021-06-19 14:50
Klart
Klart
 Vind från S
Vind: S 15 km/h
Temperatur: 27°C
Heat Index: 28°C
Daggpunkt: 19°C
Luftfuktighet: 62%
Barometer: 1012 hPa
Clouds: Klart
Visibility: 10 km
2021/06/19 12:50 EKCH 191250Z AUTO 19008KT 9999 NCD 27/19 Q1012 NOSIG
 
ESMK - Kristianstad/Everöd, Sweden
Distance from station: SO 93km
Uppdaterad: 2021-06-19 14:50
Klart
Klart
 Vind från S
Vind: S 26 km/h
Temperatur: 33°C
Daggpunkt: 15°C
Luftfuktighet: 34%
Barometer: 1011 hPa
Clouds: Klart
Visibility: 10 km
2021/06/19 12:50 ESMK 191250Z AUTO 18014KT 9999 NCD 33/15 Q1011
ESMS - Malmö/Sturup, Sweden
Distance from station: SSO 104km
Uppdaterad: 2021-06-19 14:50
Klart
Klart
 Vind från S
Vind: S 22 km/h
Temperatur: 29°C
Heat Index: 29°C
Daggpunkt: 17°C
Luftfuktighet: 48%
Barometer: 1012 hPa
Summering: Klart
Visibility: greater than 10 km
2021/06/19 12:50 ESMS 191250Z 19012KT CAVOK 29/17 Q1012
 
EKRK - Copenhagen/Roskilde, Denmark
Distance from station: SSV 108km
Uppdaterad: 2021-06-19 14:50
Övervägande molnigt
Övervägande molnigt
 Vind från VSV
Vind: VSV 22 km/h
Temperatur: 28°C
Heat Index: 29°C
Daggpunkt: 18°C
Luftfuktighet: 55%
Barometer: 1012 hPa
Clouds: Övervägande molnigt
Visibility: 10 km
Cloud details: Enstaka moln 1158 m
Övervägande molnigt 2164 m
2021/06/19 12:50 EKRK 191250Z AUTO 24012KT 9999 FEW038/// BKN071/// 28/18 Q1012
ESMX - Växjö/Kronoberg, Sweden
Distance from station: ONO 124km
Uppdaterad: 2021-06-19 14:50
Klart
Klart
 Vind från SSO
Vind: SSO 22 km/h
Temperatur: 31°C
Daggpunkt: 15°C
Luftfuktighet: 38%
Barometer: 1012 hPa
Clouds: Klart
Visibility: 10 km
2021/06/19 12:50 ESMX 191250Z AUTO 16012KT 120V190 9999 NCD 31/15 Q1012
 
EKAH - Tirstrup, Denmark
Distance from station: V 141km
Uppdaterad: 2021-06-19 14:50
Delvis molnigt
Delvis molnigt
 Vind från SSV
Vind: SSV 17 km/h
Temperatur: 28°C
Heat Index: 29°C
Daggpunkt: 19°C
Luftfuktighet: 58%
Barometer: 1011 hPa
Clouds: Delvis molnigt
Visibility: 10 km
Cloud details: Enstaka moln 975 m
Delvis molnigt 1676 m
2021/06/19 12:50 EKAH 191250Z AUTO 20009KT 130V250 9999 FEW032/// SCT055/// 28/19 Q1011
ESGG - Göteborg/Landvetter, Sweden
Distance from station: NNV 142km
Uppdaterad: 2021-06-19 14:50
Enstaka moln
Enstaka moln
 Vind från SSV
Vind: SSV 22 km/h
Temperatur: 25°C
Daggpunkt: 17°C
Luftfuktighet: 61%
Barometer: 1010 hPa
Clouds: Enstaka moln
Visibility: 10 km
Cloud details: Enstaka moln 2134 m
2021/06/19 12:50 ESGG 191250Z 21012KT 9999 FEW070CB 25/17 Q1010
 
ESDF - Ronneby, Sweden
Distance from station: O 147km
Uppdaterad: 2021-06-19 14:50
Klart
Klart
 Vind från S
Vind: S 20 km/h
Temperatur: 29°C
Heat Index: 29°C
Daggpunkt: 18°C
Luftfuktighet: 51%
Barometer: 1013 hPa
Summering: Klart
Visibility: greater than 10 km
2021/06/19 12:50 ESDF 191250Z 18011KT CAVOK 29/18 Q1013
ESGP - Göteborg/Säve, Sweden
Distance from station: NNV 161km
Uppdaterad: 2017-01-02 11:20
NOT Current
Klart
Klart
 Vind från calm
Vind: Vindstilla
Temperatur: -2°C
Daggpunkt: -4°C
Luftfuktighet: 86%
Barometer: 1012 hPa
Clouds: Klart
Visibility: 10 km
2017/01/02 10:20 ESGP 021020Z AUTO 00000KT 9999 NCD M02/M04 Q1012
 
ESGJ - Jönköping Airport, Sweden
Distance from station: NNO 164km
Uppdaterad: 2021-06-19 14:50
Enstaka moln
Enstaka moln
 Vind från S
Vind: S 24 km/h
Temperatur: 31°C
Heat Index: 31°C
Daggpunkt: 16°C
Luftfuktighet: 40%
Barometer: 1010 hPa
Clouds: Enstaka moln
Visibility: 10 km
Cloud details: Enstaka moln 4267 m
2021/06/19 12:50 ESGJ 191250Z AUTO 19013KT 9999 FEW140/// 31/16 Q1010
EKAV - Avno, Denmark
Distance from station: SSV 168km
Uppdaterad: 2016-10-04 06:20
NOT Current
Klart
Klart
 
Barometer: 1039 hPa
Clouds: Klart
Visibility: 10 km
2016/10/04 04:20 EKAV 040420Z AUTO ///// 9999NDV NCD ///// Q1039
 
EKRN - Rönne, Denmark
Distance from station: SO 191km
Uppdaterad: 2021-06-19 14:50
Klart
Klart
 Vind från SO
Vind: SO 13 km/h
Temperatur: 29°C
Heat Index: 29°C
Daggpunkt: 17°C
Luftfuktighet: 48%
Barometer: 1013 hPa
Clouds: Klart
Visibility: 10 km
2021/06/19 12:50 EKRN 191250Z AUTO 13007KT 9999 NCD 29/17 Q1013
EKOD - Odense/Beldringe, Denmark
Distance from station: VSV 193km
Uppdaterad: 2021-06-19 14:50
Delvis molnigt
Delvis molnigt
 Vind från SV
Vind: SV 24 km/h
Temperatur: 25°C
Daggpunkt: 19°C
Luftfuktighet: 69%
Barometer: 1012 hPa
Clouds: Delvis molnigt
Visibility: 10 km
Cloud details: Delvis molnigt 823 m
2021/06/19 12:50 EKOD 191250Z 23013KT 190V260 9999 SCT027 25/19 Q1012
 
EKYT - AAlborg, Denmark
Distance from station: VNV 199km
Uppdaterad: 2021-06-19 14:50
Övervägande molnigt
Övervägande molnigt
 Vind från V
Vind: V 28 km/h
Temperatur: 23°C
Daggpunkt: 19°C
Luftfuktighet: 78%
Barometer: 1009 hPa
Clouds: Övervägande molnigt
Visibility: 10 km
Cloud details: Enstaka moln 1128 m
Delvis molnigt 1402 m
Övervägande molnigt 2591 m
2021/06/19 12:50 EKYT 191250Z AUTO 26015KT 9999 FEW037/// SCT046/// BKN085/// 23/19 Q1009
EKSN - Sindal Airport, Denmark
Distance from station: NV 201km
Uppdaterad: 2021-06-18 14:50
NOT Current
Klart
Klart
 Vind från VSV
Vind: VSV 13 km/h
Temperatur: 20°C
Daggpunkt: 15°C
Luftfuktighet: 73%
Barometer: 1015 hPa
Summering: Klart
Visibility: greater than 10 km
2021/06/18 12:50 EKSN 181250Z 25007KT CAVOK 20/15 Q1015
 
ESMQ - Kalmar, Sweden
Distance from station: O 211km
Uppdaterad: 2021-06-19 14:50
Klart
Klart
 Vind från SSO
Vind: SSO 22 km/h
Temperatur: 26°C
Daggpunkt: 16°C
Luftfuktighet: 54%
Barometer: 1013 hPa
Clouds: Klart
Visibility: 10 km
2021/06/19 12:50 ESMQ 191250Z AUTO 16012KT 9999 NCD 26/16 Q1013
ESGT - Trollhättan, Sweden
Distance from station: N 212km
Uppdaterad: 2021-06-19 14:50
Övervägande molnigt
Övervägande molnigt
 Vind från N
Vind: N 13 km/h
Temperatur: 22°C
Daggpunkt: 16°C
Luftfuktighet: 69%
Barometer: 1009 hPa
Clouds: Övervägande molnigt
Visibility: 10 km
Cloud details: Delvis molnigt 2377 m
Övervägande molnigt 5791 m
2021/06/19 12:50 ESGT 191250Z AUTO 36007KT 9999 SCT078/// BKN190/// 22/16 Q1009